sensor_id;sensor_type;location;lat;lon;timestamp;temperature;humidity
6964;DHT22;3522;50.856;7.278;2024-01-25T00:02:07;8.20;99.90
6964;DHT22;3522;50.856;7.278;2024-01-25T00:04:34;8.10;99.90
6964;DHT22;3522;50.856;7.278;2024-01-25T00:07:00;8.10;99.90
6964;DHT22;3522;50.856;7.278;2024-01-25T00:09:28;8.10;99.90
6964;DHT22;3522;50.856;7.278;2024-01-25T00:11:55;8.10;99.90
6964;DHT22;3522;50.856;7.278;2024-01-25T00:14:21;8.10;99.90
6964;DHT22;3522;50.856;7.278;2024-01-25T00:16:48;8.10;99.90
6964;DHT22;3522;50.856;7.278;2024-01-25T00:19:14;8.10;99.90
6964;DHT22;3522;50.856;7.278;2024-01-25T00:21:41;8.10;99.90
6964;DHT22;3522;50.856;7.278;2024-01-25T00:24:08;8.10;99.90
6964;DHT22;3522;50.856;7.278;2024-01-25T00:26:36;8.00;99.90
6964;DHT22;3522;50.856;7.278;2024-01-25T00:29:02;8.00;99.90
6964;DHT22;3522;50.856;7.278;2024-01-25T00:31:29;8.00;99.90
6964;DHT22;3522;50.856;7.278;2024-01-25T00:33:56;8.00;99.90
6964;DHT22;3522;50.856;7.278;2024-01-25T00:36:24;8.00;99.90
6964;DHT22;3522;50.856;7.278;2024-01-25T00:38:51;8.10;99.90
6964;DHT22;3522;50.856;7.278;2024-01-25T00:41:17;8.10;99.90
6964;DHT22;3522;50.856;7.278;2024-01-25T00:43:46;8.10;99.90
6964;DHT22;3522;50.856;7.278;2024-01-25T00:46:13;8.10;99.90
6964;DHT22;3522;50.856;7.278;2024-01-25T00:48:40;8.10;99.90
6964;DHT22;3522;50.856;7.278;2024-01-25T00:51:08;8.20;99.90
6964;DHT22;3522;50.856;7.278;2024-01-25T00:53:39;8.20;99.90
6964;DHT22;3522;50.856;7.278;2024-01-25T00:56:07;8.20;99.90
6964;DHT22;3522;50.856;7.278;2024-01-25T00:58:34;8.20;99.90
6964;DHT22;3522;50.856;7.278;2024-01-25T01:01:02;8.20;99.90
6964;DHT22;3522;50.856;7.278;2024-01-25T01:03:29;8.20;99.90
6964;DHT22;3522;50.856;7.278;2024-01-25T01:05:56;8.10;99.90
6964;DHT22;3522;50.856;7.278;2024-01-25T01:08:23;8.20;99.90
6964;DHT22;3522;50.856;7.278;2024-01-25T01:10:50;8.10;99.90
6964;DHT22;3522;50.856;7.278;2024-01-25T01:13:17;8.20;99.90
6964;DHT22;3522;50.856;7.278;2024-01-25T01:15:43;8.10;99.90
6964;DHT22;3522;50.856;7.278;2024-01-25T01:18:11;8.10;99.90
6964;DHT22;3522;50.856;7.278;2024-01-25T01:20:38;8.10;99.90
6964;DHT22;3522;50.856;7.278;2024-01-25T01:23:04;8.10;99.90
6964;DHT22;3522;50.856;7.278;2024-01-25T01:25:31;8.10;99.90
6964;DHT22;3522;50.856;7.278;2024-01-25T01:27:57;8.20;99.90
6964;DHT22;3522;50.856;7.278;2024-01-25T01:30:24;8.20;99.90
6964;DHT22;3522;50.856;7.278;2024-01-25T01:32:50;8.20;99.90
6964;DHT22;3522;50.856;7.278;2024-01-25T01:35:18;8.10;99.90
6964;DHT22;3522;50.856;7.278;2024-01-25T01:37:45;8.20;99.90
6964;DHT22;3522;50.856;7.278;2024-01-25T01:40:12;8.20;99.90
6964;DHT22;3522;50.856;7.278;2024-01-25T01:42:38;8.10;99.90
6964;DHT22;3522;50.856;7.278;2024-01-25T01:45:06;8.10;99.90
6964;DHT22;3522;50.856;7.278;2024-01-25T01:47:33;8.10;99.90
6964;DHT22;3522;50.856;7.278;2024-01-25T01:49:59;8.10;99.90
6964;DHT22;3522;50.856;7.278;2024-01-25T01:52:27;8.10;99.90
6964;DHT22;3522;50.856;7.278;2024-01-25T01:54:54;8.10;99.90
6964;DHT22;3522;50.856;7.278;2024-01-25T01:57:21;8.00;99.90
6964;DHT22;3522;50.856;7.278;2024-01-25T01:59:48;8.00;99.90
6964;DHT22;3522;50.856;7.278;2024-01-25T02:02:15;7.90;99.90
6964;DHT22;3522;50.856;7.278;2024-01-25T02:04:42;7.90;99.90
6964;DHT22;3522;50.856;7.278;2024-01-25T02:07:09;7.60;99.90
6964;DHT22;3522;50.856;7.278;2024-01-25T02:09:37;7.80;99.90
6964;DHT22;3522;50.856;7.278;2024-01-25T02:12:04;7.70;99.90
6964;DHT22;3522;50.856;7.278;2024-01-25T02:14:32;7.60;99.90
6964;DHT22;3522;50.856;7.278;2024-01-25T02:16:58;7.50;99.90
6964;DHT22;3522;50.856;7.278;2024-01-25T02:19:25;7.50;99.90
6964;DHT22;3522;50.856;7.278;2024-01-25T02:21:51;7.40;99.90
6964;DHT22;3522;50.856;7.278;2024-01-25T02:24:21;7.40;99.90
6964;DHT22;3522;50.856;7.278;2024-01-25T02:26:48;7.30;99.90
6964;DHT22;3522;50.856;7.278;2024-01-25T02:29:14;7.30;99.90
6964;DHT22;3522;50.856;7.278;2024-01-25T02:31:41;7.20;99.90
6964;DHT22;3522;50.856;7.278;2024-01-25T02:34:07;7.20;99.90
6964;DHT22;3522;50.856;7.278;2024-01-25T02:36:34;7.10;99.90
6964;DHT22;3522;50.856;7.278;2024-01-25T02:39:00;7.10;99.90
6964;DHT22;3522;50.856;7.278;2024-01-25T02:41:29;7.10;99.90
6964;DHT22;3522;50.856;7.278;2024-01-25T02:43:56;7.20;99.90
6964;DHT22;3522;50.856;7.278;2024-01-25T02:46:23;7.20;99.90
6964;DHT22;3522;50.856;7.278;2024-01-25T02:48:49;7.20;99.90
6964;DHT22;3522;50.856;7.278;2024-01-25T02:51:16;7.20;99.90
6964;DHT22;3522;50.856;7.278;2024-01-25T02:53:42;7.20;99.90
6964;DHT22;3522;50.856;7.278;2024-01-25T02:56:09;7.20;99.90
6964;DHT22;3522;50.856;7.278;2024-01-25T02:58:37;7.10;99.90
6964;DHT22;3522;50.856;7.278;2024-01-25T03:01:03;7.00;99.90
6964;DHT22;3522;50.856;7.278;2024-01-25T03:03:30;7.00;99.90
6964;DHT22;3522;50.856;7.278;2024-01-25T03:05:57;7.10;99.90
6964;DHT22;3522;50.856;7.278;2024-01-25T03:08:23;7.10;99.90
6964;DHT22;3522;50.856;7.278;2024-01-25T03:10:50;7.00;99.90
6964;DHT22;3522;50.856;7.278;2024-01-25T03:13:16;6.90;99.90
6964;DHT22;3522;50.856;7.278;2024-01-25T03:15:44;6.90;99.90
6964;DHT22;3522;50.856;7.278;2024-01-25T03:18:11;6.90;99.90
6964;DHT22;3522;50.856;7.278;2024-01-25T03:20:37;6.90;99.90
6964;DHT22;3522;50.856;7.278;2024-01-25T03:23:04;6.90;99.90
6964;DHT22;3522;50.856;7.278;2024-01-25T03:25:30;6.90;99.90
6964;DHT22;3522;50.856;7.278;2024-01-25T03:27:57;6.90;99.90
6964;DHT22;3522;50.856;7.278;2024-01-25T03:30:24;6.90;99.90
6964;DHT22;3522;50.856;7.278;2024-01-25T03:32:52;6.90;99.90
6964;DHT22;3522;50.856;7.278;2024-01-25T03:35:18;7.00;99.90
6964;DHT22;3522;50.856;7.278;2024-01-25T03:37:45;7.00;99.90
6964;DHT22;3522;50.856;7.278;2024-01-25T03:40:11;7.00;99.90
6964;DHT22;3522;50.856;7.278;2024-01-25T03:42:38;6.90;99.90
6964;DHT22;3522;50.856;7.278;2024-01-25T03:45:05;6.90;99.90
6964;DHT22;3522;50.856;7.278;2024-01-25T03:47:31;6.90;99.90
6964;DHT22;3522;50.856;7.278;2024-01-25T03:49:59;6.80;99.90
6964;DHT22;3522;50.856;7.278;2024-01-25T03:52:26;6.80;99.90
6964;DHT22;3522;50.856;7.278;2024-01-25T03:54:55;6.80;99.90
6964;DHT22;3522;50.856;7.278;2024-01-25T03:57:21;6.80;99.90
6964;DHT22;3522;50.856;7.278;2024-01-25T03:59:48;6.70;99.90
6964;DHT22;3522;50.856;7.278;2024-01-25T04:02:14;6.70;99.90
6964;DHT22;3522;50.856;7.278;2024-01-25T04:04:41;6.60;99.90
6964;DHT22;3522;50.856;7.278;2024-01-25T04:07:09;6.60;99.90
6964;DHT22;3522;50.856;7.278;2024-01-25T04:09:35;6.50;99.90
6964;DHT22;3522;50.856;7.278;2024-01-25T04:12:02;6.50;99.90
6964;DHT22;3522;50.856;7.278;2024-01-25T04:14:29;6.50;99.90
6964;DHT22;3522;50.856;7.278;2024-01-25T04:16:55;6.50;99.90
6964;DHT22;3522;50.856;7.278;2024-01-25T04:19:22;6.50;99.90
6964;DHT22;3522;50.856;7.278;2024-01-25T04:21:49;6.30;99.90
6964;DHT22;3522;50.856;7.278;2024-01-25T04:24:17;6.30;99.90
6964;DHT22;3522;50.856;7.278;2024-01-25T04:26:43;6.30;99.90
6964;DHT22;3522;50.856;7.278;2024-01-25T04:29:10;6.30;99.90
6964;DHT22;3522;50.856;7.278;2024-01-25T04:31:41;6.20;99.90
6964;DHT22;3522;50.856;7.278;2024-01-25T04:34:08;6.20;99.90
6964;DHT22;3522;50.856;7.278;2024-01-25T04:36:35;6.20;99.90
6964;DHT22;3522;50.856;7.278;2024-01-25T04:39:01;6.20;99.90
6964;DHT22;3522;50.856;7.278;2024-01-25T04:41:29;6.20;99.90
6964;DHT22;3522;50.856;7.278;2024-01-25T04:43:56;6.20;99.90
6964;DHT22;3522;50.856;7.278;2024-01-25T04:46:22;6.20;99.90
6964;DHT22;3522;50.856;7.278;2024-01-25T04:48:49;6.20;99.90
6964;DHT22;3522;50.856;7.278;2024-01-25T04:51:17;6.30;99.90
6964;DHT22;3522;50.856;7.278;2024-01-25T04:53:43;6.30;99.90
6964;DHT22;3522;50.856;7.278;2024-01-25T04:56:10;6.30;99.90
6964;DHT22;3522;50.856;7.278;2024-01-25T04:58:38;6.30;99.90
6964;DHT22;3522;50.856;7.278;2024-01-25T05:01:04;6.30;99.90
6964;DHT22;3522;50.856;7.278;2024-01-25T05:03:32;6.30;99.90
6964;DHT22;3522;50.856;7.278;2024-01-25T05:05:58;6.30;99.90
6964;DHT22;3522;50.856;7.278;2024-01-25T05:08:26;6.30;99.90
6964;DHT22;3522;50.856;7.278;2024-01-25T05:10:52;6.20;99.90
6964;DHT22;3522;50.856;7.278;2024-01-25T05:13:19;6.30;99.90
6964;DHT22;3522;50.856;7.278;2024-01-25T05:15:47;6.20;99.90
6964;DHT22;3522;50.856;7.278;2024-01-25T05:18:13;6.20;99.90
6964;DHT22;3522;50.856;7.278;2024-01-25T05:20:40;6.20;99.90
6964;DHT22;3522;50.856;7.278;2024-01-25T05:23:06;6.20;99.90
6964;DHT22;3522;50.856;7.278;2024-01-25T05:25:33;6.20;99.90
6964;DHT22;3522;50.856;7.278;2024-01-25T05:28:00;6.20;99.90
6964;DHT22;3522;50.856;7.278;2024-01-25T05:30:26;6.10;99.90
6964;DHT22;3522;50.856;7.278;2024-01-25T05:32:54;6.10;99.90
6964;DHT22;3522;50.856;7.278;2024-01-25T05:35:21;6.10;99.90
6964;DHT22;3522;50.856;7.278;2024-01-25T05:37:48;6.10;99.90
6964;DHT22;3522;50.856;7.278;2024-01-25T05:40:15;6.10;99.90
6964;DHT22;3522;50.856;7.278;2024-01-25T05:42:42;6.00;99.90
6964;DHT22;3522;50.856;7.278;2024-01-25T05:45:09;6.00;99.90
6964;DHT22;3522;50.856;7.278;2024-01-25T05:47:36;6.00;99.90
6964;DHT22;3522;50.856;7.278;2024-01-25T05:50:04;6.00;99.90
6964;DHT22;3522;50.856;7.278;2024-01-25T05:52:31;6.00;99.90
6964;DHT22;3522;50.856;7.278;2024-01-25T05:54:57;6.00;99.90
6964;DHT22;3522;50.856;7.278;2024-01-25T05:57:24;5.90;99.90
6964;DHT22;3522;50.856;7.278;2024-01-25T05:59:50;5.90;99.90
6964;DHT22;3522;50.856;7.278;2024-01-25T06:02:17;5.80;99.90
6964;DHT22;3522;50.856;7.278;2024-01-25T06:04:43;5.90;99.90
6964;DHT22;3522;50.856;7.278;2024-01-25T06:07:11;5.80;99.90
6964;DHT22;3522;50.856;7.278;2024-01-25T06:09:38;5.80;99.90
6964;DHT22;3522;50.856;7.278;2024-01-25T06:12:05;5.80;99.90
6964;DHT22;3522;50.856;7.278;2024-01-25T06:14:31;5.70;99.90
6964;DHT22;3522;50.856;7.278;2024-01-25T06:16:58;5.70;99.90
6964;DHT22;3522;50.856;7.278;2024-01-25T06:19:24;5.70;99.90
6964;DHT22;3522;50.856;7.278;2024-01-25T06:21:51;5.70;99.90
6964;DHT22;3522;50.856;7.278;2024-01-25T06:24:19;5.70;99.90
6964;DHT22;3522;50.856;7.278;2024-01-25T06:26:45;5.70;99.90
6964;DHT22;3522;50.856;7.278;2024-01-25T06:29:12;5.70;99.90
6964;DHT22;3522;50.856;7.278;2024-01-25T06:31:42;5.80;99.90
6964;DHT22;3522;50.856;7.278;2024-01-25T06:34:09;5.70;99.90
6964;DHT22;3522;50.856;7.278;2024-01-25T06:36:35;5.70;99.90
6964;DHT22;3522;50.856;7.278;2024-01-25T06:39:02;5.70;99.90
6964;DHT22;3522;50.856;7.278;2024-01-25T06:41:30;5.70;99.90
6964;DHT22;3522;50.856;7.278;2024-01-25T06:43:57;5.70;99.90
6964;DHT22;3522;50.856;7.278;2024-01-25T06:46:23;5.60;99.90
6964;DHT22;3522;50.856;7.278;2024-01-25T06:48:50;5.60;99.90
6964;DHT22;3522;50.856;7.278;2024-01-25T06:51:17;5.60;99.90
6964;DHT22;3522;50.856;7.278;2024-01-25T06:53:43;5.60;99.90
6964;DHT22;3522;50.856;7.278;2024-01-25T06:56:10;5.60;99.90
6964;DHT22;3522;50.856;7.278;2024-01-25T06:58:38;5.60;99.90
6964;DHT22;3522;50.856;7.278;2024-01-25T07:01:04;5.50;99.90
6964;DHT22;3522;50.856;7.278;2024-01-25T07:03:31;5.50;99.90
6964;DHT22;3522;50.856;7.278;2024-01-25T07:05:57;5.40;99.90
6964;DHT22;3522;50.856;7.278;2024-01-25T07:08:24;5.40;99.90
6964;DHT22;3522;50.856;7.278;2024-01-25T07:10:50;5.30;99.90
6964;DHT22;3522;50.856;7.278;2024-01-25T07:13:17;5.20;99.90
6964;DHT22;3522;50.856;7.278;2024-01-25T07:15:45;5.20;99.90
6964;DHT22;3522;50.856;7.278;2024-01-25T07:18:11;5.20;99.90
6964;DHT22;3522;50.856;7.278;2024-01-25T07:20:38;5.20;99.90
6964;DHT22;3522;50.856;7.278;2024-01-25T07:23:04;5.20;99.90
6964;DHT22;3522;50.856;7.278;2024-01-25T07:25:31;5.20;99.90
6964;DHT22;3522;50.856;7.278;2024-01-25T07:27:58;5.20;99.90
6964;DHT22;3522;50.856;7.278;2024-01-25T07:30:24;5.20;99.90
6964;DHT22;3522;50.856;7.278;2024-01-25T07:32:52;5.30;99.90
6964;DHT22;3522;50.856;7.278;2024-01-25T07:35:18;5.20;99.90
6964;DHT22;3522;50.856;7.278;2024-01-25T07:37:45;5.20;99.90
6964;DHT22;3522;50.856;7.278;2024-01-25T07:40:12;5.30;99.90
6964;DHT22;3522;50.856;7.278;2024-01-25T07:42:38;5.30;99.90
6964;DHT22;3522;50.856;7.278;2024-01-25T07:45:06;5.30;99.90
6964;DHT22;3522;50.856;7.278;2024-01-25T07:47:32;5.40;99.90
6964;DHT22;3522;50.856;7.278;2024-01-25T07:50:01;5.40;99.90
6964;DHT22;3522;50.856;7.278;2024-01-25T07:52:28;5.40;99.90
6964;DHT22;3522;50.856;7.278;2024-01-25T07:54:55;5.40;99.90
6964;DHT22;3522;50.856;7.278;2024-01-25T07:57:21;5.40;99.90
6964;DHT22;3522;50.856;7.278;2024-01-25T07:59:48;5.50;99.90
6964;DHT22;3522;50.856;7.278;2024-01-25T08:02:14;5.50;99.90
6964;DHT22;3522;50.856;7.278;2024-01-25T08:04:42;5.50;99.90
6964;DHT22;3522;50.856;7.278;2024-01-25T08:07:10;5.50;99.90
6964;DHT22;3522;50.856;7.278;2024-01-25T08:09:36;5.50;99.90
6964;DHT22;3522;50.856;7.278;2024-01-25T08:12:03;5.50;99.90
6964;DHT22;3522;50.856;7.278;2024-01-25T08:14:29;5.60;99.90
6964;DHT22;3522;50.856;7.278;2024-01-25T08:16:57;5.60;99.90
6964;DHT22;3522;50.856;7.278;2024-01-25T08:19:23;5.70;99.90
6964;DHT22;3522;50.856;7.278;2024-01-25T08:21:50;5.70;99.90
6964;DHT22;3522;50.856;7.278;2024-01-25T08:24:18;5.70;99.90
6964;DHT22;3522;50.856;7.278;2024-01-25T08:26:45;5.80;99.90
6964;DHT22;3522;50.856;7.278;2024-01-25T08:29:11;5.90;99.90
6964;DHT22;3522;50.856;7.278;2024-01-25T08:31:38;6.00;99.90
6964;DHT22;3522;50.856;7.278;2024-01-25T08:34:04;6.00;99.90
6964;DHT22;3522;50.856;7.278;2024-01-25T08:36:31;6.10;99.90
6964;DHT22;3522;50.856;7.278;2024-01-25T08:38:58;6.10;99.90
6964;DHT22;3522;50.856;7.278;2024-01-25T08:41:25;6.10;99.90
6964;DHT22;3522;50.856;7.278;2024-01-25T08:43:52;6.20;99.90
6964;DHT22;3522;50.856;7.278;2024-01-25T08:46:18;6.20;99.90
6964;DHT22;3522;50.856;7.278;2024-01-25T08:48:45;6.20;99.90
6964;DHT22;3522;50.856;7.278;2024-01-25T08:51:12;6.30;99.90
6964;DHT22;3522;50.856;7.278;2024-01-25T08:53:38;6.20;99.90
6964;DHT22;3522;50.856;7.278;2024-01-25T08:56:05;6.30;99.90
6964;DHT22;3522;50.856;7.278;2024-01-25T08:58:33;6.30;99.90
6964;DHT22;3522;50.856;7.278;2024-01-25T09:00:59;6.30;99.90
6964;DHT22;3522;50.856;7.278;2024-01-25T09:03:26;6.40;99.90
6964;DHT22;3522;50.856;7.278;2024-01-25T09:05:52;6.50;99.90
6964;DHT22;3522;50.856;7.278;2024-01-25T09:08:19;6.60;99.90
6964;DHT22;3522;50.856;7.278;2024-01-25T09:10:46;6.60;99.90
6964;DHT22;3522;50.856;7.278;2024-01-25T09:13:12;6.70;99.90
6964;DHT22;3522;50.856;7.278;2024-01-25T09:15:40;6.80;99.90
6964;DHT22;3522;50.856;7.278;2024-01-25T09:18:08;6.90;99.90
6964;DHT22;3522;50.856;7.278;2024-01-25T09:20:35;6.90;99.90
6964;DHT22;3522;50.856;7.278;2024-01-25T09:23:01;6.90;99.90
6964;DHT22;3522;50.856;7.278;2024-01-25T09:25:28;7.00;99.90
6964;DHT22;3522;50.856;7.278;2024-01-25T09:27:54;7.00;99.90
6964;DHT22;3522;50.856;7.278;2024-01-25T09:30:22;7.00;99.90
6964;DHT22;3522;50.856;7.278;2024-01-25T09:32:50;7.00;99.90
6964;DHT22;3522;50.856;7.278;2024-01-25T09:35:17;7.00;99.90
6964;DHT22;3522;50.856;7.278;2024-01-25T09:37:43;7.00;99.90
6964;DHT22;3522;50.856;7.278;2024-01-25T09:40:10;7.00;99.90
6964;DHT22;3522;50.856;7.278;2024-01-25T09:42:37;7.00;99.90
6964;DHT22;3522;50.856;7.278;2024-01-25T09:45:05;6.90;99.90
6964;DHT22;3522;50.856;7.278;2024-01-25T09:47:32;7.00;99.90
6964;DHT22;3522;50.856;7.278;2024-01-25T09:50:00;7.00;99.90
6964;DHT22;3522;50.856;7.278;2024-01-25T09:52:27;7.00;99.90
6964;DHT22;3522;50.856;7.278;2024-01-25T09:54:54;7.20;99.90
6964;DHT22;3522;50.856;7.278;2024-01-25T09:57:22;7.10;99.90
6964;DHT22;3522;50.856;7.278;2024-01-25T09:59:50;7.10;99.90
6964;DHT22;3522;50.856;7.278;2024-01-25T10:02:16;7.20;99.90
6964;DHT22;3522;50.856;7.278;2024-01-25T10:04:46;7.30;99.90
6964;DHT22;3522;50.856;7.278;2024-01-25T10:07:15;7.40;99.90
6964;DHT22;3522;50.856;7.278;2024-01-25T10:09:41;7.40;99.90
6964;DHT22;3522;50.856;7.278;2024-01-25T10:12:08;7.50;99.90
6964;DHT22;3522;50.856;7.278;2024-01-25T10:14:35;7.50;99.90
6964;DHT22;3522;50.856;7.278;2024-01-25T10:17:03;7.60;99.90
6964;DHT22;3522;50.856;7.278;2024-01-25T10:19:29;7.60;99.90
6964;DHT22;3522;50.856;7.278;2024-01-25T10:21:56;7.70;99.90
6964;DHT22;3522;50.856;7.278;2024-01-25T10:24:24;7.80;99.90
6964;DHT22;3522;50.856;7.278;2024-01-25T10:26:51;7.80;99.90
6964;DHT22;3522;50.856;7.278;2024-01-25T10:29:17;7.80;99.90
6964;DHT22;3522;50.856;7.278;2024-01-25T10:31:44;7.80;99.90
6964;DHT22;3522;50.856;7.278;2024-01-25T10:34:11;7.90;99.90
6964;DHT22;3522;50.856;7.278;2024-01-25T10:36:37;7.90;99.90
6964;DHT22;3522;50.856;7.278;2024-01-25T10:39:04;7.90;99.90
6964;DHT22;3522;50.856;7.278;2024-01-25T10:41:34;7.90;99.90
6964;DHT22;3522;50.856;7.278;2024-01-25T10:44:01;8.00;99.90
6964;DHT22;3522;50.856;7.278;2024-01-25T10:46:28;8.00;99.90
6964;DHT22;3522;50.856;7.278;2024-01-25T10:48:56;8.10;99.90
6964;DHT22;3522;50.856;7.278;2024-01-25T10:51:23;8.20;99.90
6964;DHT22;3522;50.856;7.278;2024-01-25T10:53:50;8.30;99.90
6964;DHT22;3522;50.856;7.278;2024-01-25T10:56:17;8.30;99.90
6964;DHT22;3522;50.856;7.278;2024-01-25T10:58:44;8.50;99.90
6964;DHT22;3522;50.856;7.278;2024-01-25T11:01:11;8.50;99.90
6964;DHT22;3522;50.856;7.278;2024-01-25T11:03:38;8.50;99.90
6964;DHT22;3522;50.856;7.278;2024-01-25T11:06:05;8.40;99.90
6964;DHT22;3522;50.856;7.278;2024-01-25T11:08:32;8.40;99.90
6964;DHT22;3522;50.856;7.278;2024-01-25T11:10:59;8.50;99.90
6964;DHT22;3522;50.856;7.278;2024-01-25T11:13:26;8.50;99.90
6964;DHT22;3522;50.856;7.278;2024-01-25T11:15:54;8.50;99.90
6964;DHT22;3522;50.856;7.278;2024-01-25T11:18:24;8.60;99.90
6964;DHT22;3522;50.856;7.278;2024-01-25T11:20:51;8.70;99.90
6964;DHT22;3522;50.856;7.278;2024-01-25T11:23:17;8.80;99.90
6964;DHT22;3522;50.856;7.278;2024-01-25T11:25:44;8.90;99.90
6964;DHT22;3522;50.856;7.278;2024-01-25T11:28:11;9.00;99.90
6964;DHT22;3522;50.856;7.278;2024-01-25T11:30:39;9.20;99.90
6964;DHT22;3522;50.856;7.278;2024-01-25T11:33:08;9.40;99.90
6964;DHT22;3522;50.856;7.278;2024-01-25T11:35:34;9.60;99.90
6964;DHT22;3522;50.856;7.278;2024-01-25T11:38:01;9.60;99.90
6964;DHT22;3522;50.856;7.278;2024-01-25T11:40:28;9.60;99.90
6964;DHT22;3522;50.856;7.278;2024-01-25T11:42:56;9.50;99.90
6964;DHT22;3522;50.856;7.278;2024-01-25T11:45:23;9.50;99.90
6964;DHT22;3522;50.856;7.278;2024-01-25T11:47:49;9.50;99.90
6964;DHT22;3522;50.856;7.278;2024-01-25T11:50:17;9.60;99.90
6964;DHT22;3522;50.856;7.278;2024-01-25T11:52:44;9.50;99.90
6964;DHT22;3522;50.856;7.278;2024-01-25T11:55:11;9.50;99.90
6964;DHT22;3522;50.856;7.278;2024-01-25T11:57:38;9.50;99.90
6964;DHT22;3522;50.856;7.278;2024-01-25T12:00:06;9.60;99.90
6964;DHT22;3522;50.856;7.278;2024-01-25T12:02:34;9.80;99.90
6964;DHT22;3522;50.856;7.278;2024-01-25T12:05:02;9.70;99.90
6964;DHT22;3522;50.856;7.278;2024-01-25T12:07:30;9.70;99.90
6964;DHT22;3522;50.856;7.278;2024-01-25T12:09:58;9.80;99.90
6964;DHT22;3522;50.856;7.278;2024-01-25T12:12:24;9.70;99.90
6964;DHT22;3522;50.856;7.278;2024-01-25T12:14:51;9.70;99.90
6964;DHT22;3522;50.856;7.278;2024-01-25T12:17:18;9.70;99.90
6964;DHT22;3522;50.856;7.278;2024-01-25T12:19:44;9.70;99.90
6964;DHT22;3522;50.856;7.278;2024-01-25T12:22:11;9.70;99.90
6964;DHT22;3522;50.856;7.278;2024-01-25T12:24:39;9.70;99.90
6964;DHT22;3522;50.856;7.278;2024-01-25T12:27:06;9.80;99.90
6964;DHT22;3522;50.856;7.278;2024-01-25T12:29:32;9.90;99.90
6964;DHT22;3522;50.856;7.278;2024-01-25T12:31:59;9.80;99.90
6964;DHT22;3522;50.856;7.278;2024-01-25T12:34:26;9.80;99.90
6964;DHT22;3522;50.856;7.278;2024-01-25T12:36:52;9.80;99.90
6964;DHT22;3522;50.856;7.278;2024-01-25T12:39:19;9.70;99.90
6964;DHT22;3522;50.856;7.278;2024-01-25T12:41:47;9.70;99.90
6964;DHT22;3522;50.856;7.278;2024-01-25T12:44:14;9.70;99.90
6964;DHT22;3522;50.856;7.278;2024-01-25T12:46:41;9.60;99.90
6964;DHT22;3522;50.856;7.278;2024-01-25T12:49:07;9.60;99.90
6964;DHT22;3522;50.856;7.278;2024-01-25T12:51:34;9.70;99.90
6964;DHT22;3522;50.856;7.278;2024-01-25T12:54:00;9.70;99.90
6964;DHT22;3522;50.856;7.278;2024-01-25T12:56:27;9.60;99.90
6964;DHT22;3522;50.856;7.278;2024-01-25T12:58:55;9.60;99.90
6964;DHT22;3522;50.856;7.278;2024-01-25T13:01:21;9.60;99.90
6964;DHT22;3522;50.856;7.278;2024-01-25T13:03:48;9.60;99.90
6964;DHT22;3522;50.856;7.278;2024-01-25T13:06:15;9.70;99.90
6964;DHT22;3522;50.856;7.278;2024-01-25T13:08:41;9.70;99.90
6964;DHT22;3522;50.856;7.278;2024-01-25T13:11:08;9.70;99.90
6964;DHT22;3522;50.856;7.278;2024-01-25T13:13:34;9.70;99.90
6964;DHT22;3522;50.856;7.278;2024-01-25T13:16:03;9.70;99.90
6964;DHT22;3522;50.856;7.278;2024-01-25T13:18:29;9.60;99.90
6964;DHT22;3522;50.856;7.278;2024-01-25T13:20:56;9.70;99.90
6964;DHT22;3522;50.856;7.278;2024-01-25T13:23:22;9.70;99.90
6964;DHT22;3522;50.856;7.278;2024-01-25T13:25:49;9.70;99.90
6964;DHT22;3522;50.856;7.278;2024-01-25T13:28:15;9.70;99.90
6964;DHT22;3522;50.856;7.278;2024-01-25T13:30:42;9.70;99.90
6964;DHT22;3522;50.856;7.278;2024-01-25T13:33:10;9.80;99.90
6964;DHT22;3522;50.856;7.278;2024-01-25T13:35:37;9.80;99.90
6964;DHT22;3522;50.856;7.278;2024-01-25T13:38:03;9.80;99.90
6964;DHT22;3522;50.856;7.278;2024-01-25T13:40:30;9.70;99.90
6964;DHT22;3522;50.856;7.278;2024-01-25T13:42:56;9.70;99.90
6964;DHT22;3522;50.856;7.278;2024-01-25T13:45:23;9.70;99.90
6964;DHT22;3522;50.856;7.278;2024-01-25T13:47:50;9.70;99.90
6964;DHT22;3522;50.856;7.278;2024-01-25T13:50:17;9.70;99.90
6964;DHT22;3522;50.856;7.278;2024-01-25T13:52:44;9.70;99.90
6964;DHT22;3522;50.856;7.278;2024-01-25T13:55:11;9.70;99.90
6964;DHT22;3522;50.856;7.278;2024-01-25T13:57:37;9.70;99.90
6964;DHT22;3522;50.856;7.278;2024-01-25T14:00:04;9.70;99.90
6964;DHT22;3522;50.856;7.278;2024-01-25T14:02:31;9.80;99.90
6964;DHT22;3522;50.856;7.278;2024-01-25T14:04:57;9.80;99.90
6964;DHT22;3522;50.856;7.278;2024-01-25T14:07:25;9.90;99.90
6964;DHT22;3522;50.856;7.278;2024-01-25T14:09:52;9.90;99.90
6964;DHT22;3522;50.856;7.278;2024-01-25T14:12:19;9.90;99.90
6964;DHT22;3522;50.856;7.278;2024-01-25T14:14:45;9.90;99.90
6964;DHT22;3522;50.856;7.278;2024-01-25T14:17:12;10.00;99.90
6964;DHT22;3522;50.856;7.278;2024-01-25T14:19:38;10.00;99.90
6964;DHT22;3522;50.856;7.278;2024-01-25T14:22:05;10.00;99.90
6964;DHT22;3522;50.856;7.278;2024-01-25T14:24:33;10.00;99.90
6964;DHT22;3522;50.856;7.278;2024-01-25T14:27:00;10.00;99.90
6964;DHT22;3522;50.856;7.278;2024-01-25T14:29:26;10.00;99.90
6964;DHT22;3522;50.856;7.278;2024-01-25T14:31:57;10.00;99.90
6964;DHT22;3522;50.856;7.278;2024-01-25T14:34:24;10.00;99.90
6964;DHT22;3522;50.856;7.278;2024-01-25T14:36:50;10.00;99.90
6964;DHT22;3522;50.856;7.278;2024-01-25T14:39:17;10.00;99.90
6964;DHT22;3522;50.856;7.278;2024-01-25T14:41:45;10.00;99.90
6964;DHT22;3522;50.856;7.278;2024-01-25T14:44:12;10.00;99.90
6964;DHT22;3522;50.856;7.278;2024-01-25T14:46:38;10.00;99.90
6964;DHT22;3522;50.856;7.278;2024-01-25T14:49:05;10.00;99.90
6964;DHT22;3522;50.856;7.278;2024-01-25T14:51:31;9.90;99.90
6964;DHT22;3522;50.856;7.278;2024-01-25T14:53:58;9.90;99.90
6964;DHT22;3522;50.856;7.278;2024-01-25T14:56:24;9.80;99.90
6964;DHT22;3522;50.856;7.278;2024-01-25T14:58:52;9.70;99.90
6964;DHT22;3522;50.856;7.278;2024-01-25T15:01:19;9.60;99.90
6964;DHT22;3522;50.856;7.278;2024-01-25T15:03:53;9.60;99.90
6964;DHT22;3522;50.856;7.278;2024-01-25T15:06:19;9.50;99.90
6964;DHT22;3522;50.856;7.278;2024-01-25T15:08:46;9.50;99.90
6964;DHT22;3522;50.856;7.278;2024-01-25T15:11:12;9.50;99.90
6964;DHT22;3522;50.856;7.278;2024-01-25T15:13:39;9.40;99.90
6964;DHT22;3522;50.856;7.278;2024-01-25T15:16:07;9.30;99.90
6964;DHT22;3522;50.856;7.278;2024-01-25T15:18:34;9.30;99.90
6964;DHT22;3522;50.856;7.278;2024-01-25T15:21:00;9.20;99.90
6964;DHT22;3522;50.856;7.278;2024-01-25T15:23:27;9.10;99.90
6964;DHT22;3522;50.856;7.278;2024-01-25T15:25:54;9.10;99.90
6964;DHT22;3522;50.856;7.278;2024-01-25T15:28:21;9.10;99.90
6964;DHT22;3522;50.856;7.278;2024-01-25T15:30:47;9.10;99.90
6964;DHT22;3522;50.856;7.278;2024-01-25T15:33:15;9.10;99.90
6964;DHT22;3522;50.856;7.278;2024-01-25T15:35:42;9.10;99.90
6964;DHT22;3522;50.856;7.278;2024-01-25T15:38:09;9.00;99.90
6964;DHT22;3522;50.856;7.278;2024-01-25T15:40:35;9.00;99.90
6964;DHT22;3522;50.856;7.278;2024-01-25T15:43:02;9.00;99.90
6964;DHT22;3522;50.856;7.278;2024-01-25T15:45:29;9.00;99.90
6964;DHT22;3522;50.856;7.278;2024-01-25T15:47:56;8.90;99.90
6964;DHT22;3522;50.856;7.278;2024-01-25T15:50:23;8.90;99.90
6964;DHT22;3522;50.856;7.278;2024-01-25T15:52:50;8.90;99.90
6964;DHT22;3522;50.856;7.278;2024-01-25T15:55:17;8.80;99.90
6964;DHT22;3522;50.856;7.278;2024-01-25T15:57:44;8.80;99.90
6964;DHT22;3522;50.856;7.278;2024-01-25T16:00:11;8.80;99.90
6964;DHT22;3522;50.856;7.278;2024-01-25T16:02:37;8.80;99.90
6964;DHT22;3522;50.856;7.278;2024-01-25T16:05:04;8.70;99.90
6964;DHT22;3522;50.856;7.278;2024-01-25T16:07:32;8.70;99.90
6964;DHT22;3522;50.856;7.278;2024-01-25T16:09:59;8.70;99.90
6964;DHT22;3522;50.856;7.278;2024-01-25T16:12:25;8.60;99.90
6964;DHT22;3522;50.856;7.278;2024-01-25T16:14:52;8.60;99.90